sensor_id;sensor_type;location;lat;lon;timestamp;temperature;humidity
38500;DHT22;24269;51.894;4.622;2022-08-07T00:01:44;14.50;99.90
38500;DHT22;24269;51.894;4.622;2022-08-07T00:04:10;14.50;99.90
38500;DHT22;24269;51.894;4.622;2022-08-07T00:06:36;14.50;99.90
38500;DHT22;24269;51.894;4.622;2022-08-07T00:09:03;14.40;99.90
38500;DHT22;24269;51.894;4.622;2022-08-07T00:11:28;14.40;99.90
38500;DHT22;24269;51.894;4.622;2022-08-07T00:13:54;14.40;99.90
38500;DHT22;24269;51.894;4.622;2022-08-07T00:16:20;14.30;99.90
38500;DHT22;24269;51.894;4.622;2022-08-07T00:18:45;14.40;99.90
38500;DHT22;24269;51.894;4.622;2022-08-07T00:21:11;14.30;99.90
38500;DHT22;24269;51.894;4.622;2022-08-07T00:23:38;14.30;99.90
38500;DHT22;24269;51.894;4.622;2022-08-07T00:26:07;14.30;99.90
38500;DHT22;24269;51.894;4.622;2022-08-07T00:28:33;14.30;99.90
38500;DHT22;24269;51.894;4.622;2022-08-07T00:31:04;14.30;99.90
38500;DHT22;24269;51.894;4.622;2022-08-07T00:33:31;14.20;99.90
38500;DHT22;24269;51.894;4.622;2022-08-07T00:35:57;14.20;99.90
38500;DHT22;24269;51.894;4.622;2022-08-07T00:38:23;14.20;99.90
38500;DHT22;24269;51.894;4.622;2022-08-07T00:40:49;14.20;99.90
38500;DHT22;24269;51.894;4.622;2022-08-07T00:43:14;14.20;99.90
38500;DHT22;24269;51.894;4.622;2022-08-07T00:45:40;14.10;99.90
38500;DHT22;24269;51.894;4.622;2022-08-07T00:48:07;14.10;99.90
38500;DHT22;24269;51.894;4.622;2022-08-07T00:50:34;14.10;99.90
38500;DHT22;24269;51.894;4.622;2022-08-07T00:52:59;14.10;99.90
38500;DHT22;24269;51.894;4.622;2022-08-07T00:55:25;14.10;99.90
38500;DHT22;24269;51.894;4.622;2022-08-07T00:57:51;14.10;99.90
38500;DHT22;24269;51.894;4.622;2022-08-07T01:00:18;14.00;99.90
38500;DHT22;24269;51.894;4.622;2022-08-07T01:02:44;14.00;99.90
38500;DHT22;24269;51.894;4.622;2022-08-07T01:05:11;14.00;99.90
38500;DHT22;24269;51.894;4.622;2022-08-07T01:07:38;14.00;99.90
38500;DHT22;24269;51.894;4.622;2022-08-07T01:10:04;14.00;99.90
38500;DHT22;24269;51.894;4.622;2022-08-07T01:12:31;14.00;99.90
38500;DHT22;24269;51.894;4.622;2022-08-07T01:14:57;14.00;99.90
38500;DHT22;24269;51.894;4.622;2022-08-07T01:17:25;14.00;99.90
38500;DHT22;24269;51.894;4.622;2022-08-07T01:19:52;14.00;99.90
38500;DHT22;24269;51.894;4.622;2022-08-07T01:22:19;14.00;99.90
38500;DHT22;24269;51.894;4.622;2022-08-07T01:24:45;13.90;99.90
38500;DHT22;24269;51.894;4.622;2022-08-07T01:27:11;13.90;99.90
38500;DHT22;24269;51.894;4.622;2022-08-07T01:29:37;13.90;99.90
38500;DHT22;24269;51.894;4.622;2022-08-07T01:32:03;13.90;99.90
38500;DHT22;24269;51.894;4.622;2022-08-07T01:34:30;13.90;99.90
38500;DHT22;24269;51.894;4.622;2022-08-07T01:36:56;13.80;99.90
38500;DHT22;24269;51.894;4.622;2022-08-07T01:39:22;13.90;99.90
38500;DHT22;24269;51.894;4.622;2022-08-07T01:41:49;13.80;99.90
38500;DHT22;24269;51.894;4.622;2022-08-07T01:44:15;13.80;99.90
38500;DHT22;24269;51.894;4.622;2022-08-07T01:46:41;13.80;99.90
38500;DHT22;24269;51.894;4.622;2022-08-07T01:49:07;13.80;99.90
38500;DHT22;24269;51.894;4.622;2022-08-07T01:51:32;13.80;99.90
38500;DHT22;24269;51.894;4.622;2022-08-07T01:54:02;13.80;99.90
38500;DHT22;24269;51.894;4.622;2022-08-07T01:56:33;13.80;99.90
38500;DHT22;24269;51.894;4.622;2022-08-07T01:59:30;13.80;99.90
38500;DHT22;24269;51.894;4.622;2022-08-07T02:02:08;13.70;99.90
38500;DHT22;24269;51.894;4.622;2022-08-07T02:04:40;13.70;99.90
38500;DHT22;24269;51.894;4.622;2022-08-07T02:07:08;13.70;99.90
38500;DHT22;24269;51.894;4.622;2022-08-07T02:09:36;13.70;99.90
38500;DHT22;24269;51.894;4.622;2022-08-07T02:12:04;13.60;99.90
38500;DHT22;24269;51.894;4.622;2022-08-07T02:14:44;13.60;99.90
38500;DHT22;24269;51.894;4.622;2022-08-07T02:17:13;13.60;99.90
38500;DHT22;24269;51.894;4.622;2022-08-07T02:19:42;13.70;99.90
38500;DHT22;24269;51.894;4.622;2022-08-07T02:22:10;13.70;99.90
38500;DHT22;24269;51.894;4.622;2022-08-07T02:24:37;13.70;99.90
38500;DHT22;24269;51.894;4.622;2022-08-07T02:27:04;13.70;99.90
38500;DHT22;24269;51.894;4.622;2022-08-07T02:29:31;13.70;99.90
38500;DHT22;24269;51.894;4.622;2022-08-07T02:31:59;13.60;99.90
38500;DHT22;24269;51.894;4.622;2022-08-07T02:34:27;13.60;99.90
38500;DHT22;24269;51.894;4.622;2022-08-07T02:36:54;13.60;99.90
38500;DHT22;24269;51.894;4.622;2022-08-07T02:39:21;13.50;99.90
38500;DHT22;24269;51.894;4.622;2022-08-07T02:41:47;13.50;99.90
38500;DHT22;24269;51.894;4.622;2022-08-07T02:44:14;13.50;99.90
38500;DHT22;24269;51.894;4.622;2022-08-07T02:46:41;13.50;99.90
38500;DHT22;24269;51.894;4.622;2022-08-07T02:49:07;13.40;99.90
38500;DHT22;24269;51.894;4.622;2022-08-07T02:51:34;13.40;99.90
38500;DHT22;24269;51.894;4.622;2022-08-07T02:54:01;13.40;99.90
38500;DHT22;24269;51.894;4.622;2022-08-07T02:56:30;13.40;99.90
38500;DHT22;24269;51.894;4.622;2022-08-07T02:58:59;13.40;99.90
38500;DHT22;24269;51.894;4.622;2022-08-07T03:01:26;13.30;99.90
38500;DHT22;24269;51.894;4.622;2022-08-07T03:03:54;13.30;99.90
38500;DHT22;24269;51.894;4.622;2022-08-07T03:06:22;13.30;99.90
38500;DHT22;24269;51.894;4.622;2022-08-07T03:08:48;13.30;99.90
38500;DHT22;24269;51.894;4.622;2022-08-07T03:11:15;13.40;99.90
38500;DHT22;24269;51.894;4.622;2022-08-07T03:13:42;13.40;99.90
38500;DHT22;24269;51.894;4.622;2022-08-07T03:16:08;13.30;99.90
38500;DHT22;24269;51.894;4.622;2022-08-07T03:18:34;13.30;99.90
38500;DHT22;24269;51.894;4.622;2022-08-07T03:21:00;13.30;99.90
38500;DHT22;24269;51.894;4.622;2022-08-07T03:23:27;13.30;99.90
38500;DHT22;24269;51.894;4.622;2022-08-07T03:25:54;13.30;99.90
38500;DHT22;24269;51.894;4.622;2022-08-07T03:28:22;13.30;99.90
38500;DHT22;24269;51.894;4.622;2022-08-07T03:30:50;13.30;99.90
38500;DHT22;24269;51.894;4.622;2022-08-07T03:33:37;13.30;99.90
38500;DHT22;24269;51.894;4.622;2022-08-07T03:36:03;13.30;99.90
38500;DHT22;24269;51.894;4.622;2022-08-07T03:38:29;13.30;99.90
38500;DHT22;24269;51.894;4.622;2022-08-07T03:40:55;13.30;99.90
38500;DHT22;24269;51.894;4.622;2022-08-07T03:43:21;13.30;99.90
38500;DHT22;24269;51.894;4.622;2022-08-07T03:45:47;13.20;99.90
38500;DHT22;24269;51.894;4.622;2022-08-07T03:48:13;13.20;99.90
38500;DHT22;24269;51.894;4.622;2022-08-07T03:50:39;13.20;99.90
38500;DHT22;24269;51.894;4.622;2022-08-07T03:53:06;13.20;99.90
38500;DHT22;24269;51.894;4.622;2022-08-07T03:55:32;13.20;99.90
38500;DHT22;24269;51.894;4.622;2022-08-07T03:57:58;13.20;99.90
38500;DHT22;24269;51.894;4.622;2022-08-07T04:00:24;13.20;99.90
38500;DHT22;24269;51.894;4.622;2022-08-07T04:02:50;13.20;99.90
38500;DHT22;24269;51.894;4.622;2022-08-07T04:05:19;13.20;99.90
38500;DHT22;24269;51.894;4.622;2022-08-07T04:07:46;13.20;99.90
38500;DHT22;24269;51.894;4.622;2022-08-07T04:10:12;13.20;99.90
38500;DHT22;24269;51.894;4.622;2022-08-07T04:12:38;13.20;99.90
38500;DHT22;24269;51.894;4.622;2022-08-07T04:15:05;13.10;99.90
38500;DHT22;24269;51.894;4.622;2022-08-07T04:17:31;13.20;99.90
38500;DHT22;24269;51.894;4.622;2022-08-07T04:19:57;13.10;99.90
38500;DHT22;24269;51.894;4.622;2022-08-07T04:22:23;13.10;99.90
38500;DHT22;24269;51.894;4.622;2022-08-07T04:24:49;13.10;99.90
38500;DHT22;24269;51.894;4.622;2022-08-07T04:27:15;13.10;99.90
38500;DHT22;24269;51.894;4.622;2022-08-07T04:29:43;13.10;99.90
38500;DHT22;24269;51.894;4.622;2022-08-07T04:32:09;13.10;99.90
38500;DHT22;24269;51.894;4.622;2022-08-07T04:34:35;13.10;99.90
38500;DHT22;24269;51.894;4.622;2022-08-07T04:37:01;13.10;99.90
38500;DHT22;24269;51.894;4.622;2022-08-07T04:39:27;13.10;99.90
38500;DHT22;24269;51.894;4.622;2022-08-07T04:41:53;13.10;99.90
38500;DHT22;24269;51.894;4.622;2022-08-07T04:44:19;13.10;99.90
38500;DHT22;24269;51.894;4.622;2022-08-07T04:46:54;13.10;99.90
38500;DHT22;24269;51.894;4.622;2022-08-07T04:52:01;13.10;99.90
38500;DHT22;24269;51.894;4.622;2022-08-07T04:57:15;13.10;99.90
38500;DHT22;24269;51.894;4.622;2022-08-07T04:59:53;13.10;99.90
38500;DHT22;24269;51.894;4.622;2022-08-07T05:02:22;13.10;99.90
38500;DHT22;24269;51.894;4.622;2022-08-07T05:08:00;13.20;99.90
38500;DHT22;24269;51.894;4.622;2022-08-07T05:10:36;13.20;99.90
38500;DHT22;24269;51.894;4.622;2022-08-07T05:13:08;13.20;99.90
38500;DHT22;24269;51.894;4.622;2022-08-07T05:15:43;13.30;99.90
38500;DHT22;24269;51.894;4.622;2022-08-07T05:18:18;13.30;99.90
38500;DHT22;24269;51.894;4.622;2022-08-07T05:20:51;13.30;99.90
38500;DHT22;24269;51.894;4.622;2022-08-07T05:23:21;13.40;99.90
38500;DHT22;24269;51.894;4.622;2022-08-07T05:25:48;13.40;99.90
38500;DHT22;24269;51.894;4.622;2022-08-07T05:28:15;13.40;99.90
38500;DHT22;24269;51.894;4.622;2022-08-07T05:30:42;13.50;99.90
38500;DHT22;24269;51.894;4.622;2022-08-07T05:33:10;13.50;99.90
38500;DHT22;24269;51.894;4.622;2022-08-07T05:35:37;13.50;99.90
38500;DHT22;24269;51.894;4.622;2022-08-07T05:38:04;13.50;99.90
38500;DHT22;24269;51.894;4.622;2022-08-07T05:40:35;13.60;99.90
38500;DHT22;24269;51.894;4.622;2022-08-07T05:43:01;13.60;99.90
38500;DHT22;24269;51.894;4.622;2022-08-07T05:45:27;13.70;99.90
38500;DHT22;24269;51.894;4.622;2022-08-07T05:47:56;13.70;99.90
38500;DHT22;24269;51.894;4.622;2022-08-07T05:50:22;13.70;99.90
38500;DHT22;24269;51.894;4.622;2022-08-07T05:52:48;13.80;99.90
38500;DHT22;24269;51.894;4.622;2022-08-07T05:55:14;13.90;99.90
38500;DHT22;24269;51.894;4.622;2022-08-07T05:57:40;13.90;99.90
38500;DHT22;24269;51.894;4.622;2022-08-07T06:00:08;14.00;99.90
38500;DHT22;24269;51.894;4.622;2022-08-07T06:02:35;14.10;99.90
38500;DHT22;24269;51.894;4.622;2022-08-07T06:05:04;14.10;99.90
38500;DHT22;24269;51.894;4.622;2022-08-07T06:07:32;14.10;99.90
38500;DHT22;24269;51.894;4.622;2022-08-07T06:09:59;14.20;99.90
38500;DHT22;24269;51.894;4.622;2022-08-07T06:12:25;14.30;99.90
38500;DHT22;24269;51.894;4.622;2022-08-07T06:14:51;14.30;99.90
38500;DHT22;24269;51.894;4.622;2022-08-07T06:17:18;14.40;99.90
38500;DHT22;24269;51.894;4.622;2022-08-07T06:19:44;14.50;99.90
38500;DHT22;24269;51.894;4.622;2022-08-07T06:22:10;14.60;99.90
38500;DHT22;24269;51.894;4.622;2022-08-07T06:24:36;14.70;99.90
38500;DHT22;24269;51.894;4.622;2022-08-07T06:27:03;14.80;99.90
38500;DHT22;24269;51.894;4.622;2022-08-07T06:29:29;14.90;99.90
38500;DHT22;24269;51.894;4.622;2022-08-07T06:31:54;15.00;99.90
38500;DHT22;24269;51.894;4.622;2022-08-07T06:34:27;15.00;99.90
38500;DHT22;24269;51.894;4.622;2022-08-07T06:36:54;15.10;99.90
38500;DHT22;24269;51.894;4.622;2022-08-07T06:39:20;15.20;99.90
38500;DHT22;24269;51.894;4.622;2022-08-07T06:41:52;15.20;99.90
38500;DHT22;24269;51.894;4.622;2022-08-07T06:44:22;15.30;99.90
38500;DHT22;24269;51.894;4.622;2022-08-07T06:46:48;15.40;99.90
38500;DHT22;24269;51.894;4.622;2022-08-07T06:49:14;15.50;99.90
38500;DHT22;24269;51.894;4.622;2022-08-07T06:51:41;15.60;99.90
38500;DHT22;24269;51.894;4.622;2022-08-07T06:54:09;15.70;99.90
38500;DHT22;24269;51.894;4.622;2022-08-07T06:56:36;15.80;99.90
38500;DHT22;24269;51.894;4.622;2022-08-07T06:59:14;16.00;99.90
38500;DHT22;24269;51.894;4.622;2022-08-07T07:01:41;16.10;99.90
38500;DHT22;24269;51.894;4.622;2022-08-07T07:04:08;16.20;99.90
38500;DHT22;24269;51.894;4.622;2022-08-07T07:06:34;16.30;99.90
38500;DHT22;24269;51.894;4.622;2022-08-07T07:09:21;16.40;99.90
38500;DHT22;24269;51.894;4.622;2022-08-07T07:14:30;16.60;99.90
38500;DHT22;24269;51.894;4.622;2022-08-07T07:17:00;16.70;99.90
38500;DHT22;24269;51.894;4.622;2022-08-07T07:19:34;16.90;99.90
38500;DHT22;24269;51.894;4.622;2022-08-07T07:22:03;16.90;99.90
38500;DHT22;24269;51.894;4.622;2022-08-07T07:24:29;17.00;99.90
38500;DHT22;24269;51.894;4.622;2022-08-07T07:26:56;17.10;99.90
38500;DHT22;24269;51.894;4.622;2022-08-07T07:29:25;17.10;99.90
38500;DHT22;24269;51.894;4.622;2022-08-07T07:32:03;17.20;99.90
38500;DHT22;24269;51.894;4.622;2022-08-07T07:34:31;17.30;99.90
38500;DHT22;24269;51.894;4.622;2022-08-07T07:37:02;17.40;99.90
38500;DHT22;24269;51.894;4.622;2022-08-07T07:39:31;17.50;99.90
38500;DHT22;24269;51.894;4.622;2022-08-07T07:41:59;17.70;99.90
38500;DHT22;24269;51.894;4.622;2022-08-07T07:44:26;17.80;99.90
38500;DHT22;24269;51.894;4.622;2022-08-07T07:46:54;17.80;99.90
38500;DHT22;24269;51.894;4.622;2022-08-07T07:49:22;18.00;99.90
38500;DHT22;24269;51.894;4.622;2022-08-07T07:51:49;18.10;99.90
38500;DHT22;24269;51.894;4.622;2022-08-07T07:54:16;18.20;99.90
38500;DHT22;24269;51.894;4.622;2022-08-07T07:56:43;18.30;99.90
38500;DHT22;24269;51.894;4.622;2022-08-07T07:59:11;18.30;99.90
38500;DHT22;24269;51.894;4.622;2022-08-07T08:01:42;18.50;99.90
38500;DHT22;24269;51.894;4.622;2022-08-07T08:04:09;18.60;99.90
38500;DHT22;24269;51.894;4.622;2022-08-07T08:06:35;18.80;99.90
38500;DHT22;24269;51.894;4.622;2022-08-07T08:09:03;18.90;99.90
38500;DHT22;24269;51.894;4.622;2022-08-07T08:11:30;18.90;99.90
38500;DHT22;24269;51.894;4.622;2022-08-07T08:13:56;19.00;99.90
38500;DHT22;24269;51.894;4.622;2022-08-07T08:16:28;19.10;99.90
38500;DHT22;24269;51.894;4.622;2022-08-07T08:18:58;19.20;99.90
38500;DHT22;24269;51.894;4.622;2022-08-07T08:21:24;19.20;99.90
38500;DHT22;24269;51.894;4.622;2022-08-07T08:24:09;19.30;99.90
38500;DHT22;24269;51.894;4.622;2022-08-07T08:27:08;19.40;99.90
38500;DHT22;24269;51.894;4.622;2022-08-07T08:32:13;19.80;99.90
38500;DHT22;24269;51.894;4.622;2022-08-07T08:34:40;19.80;99.90
38500;DHT22;24269;51.894;4.622;2022-08-07T08:37:08;19.90;99.90
38500;DHT22;24269;51.894;4.622;2022-08-07T08:39:35;19.90;99.90
38500;DHT22;24269;51.894;4.622;2022-08-07T08:42:27;20.10;99.90
38500;DHT22;24269;51.894;4.622;2022-08-07T08:48:03;20.50;99.90
38500;DHT22;24269;51.894;4.622;2022-08-07T08:50:56;20.50;99.90
38500;DHT22;24269;51.894;4.622;2022-08-07T08:53:33;20.60;99.90
38500;DHT22;24269;51.894;4.622;2022-08-07T08:56:06;20.60;99.90
38500;DHT22;24269;51.894;4.622;2022-08-07T09:07:47;20.70;99.90
38500;DHT22;24269;51.894;4.622;2022-08-07T09:10:20;20.90;99.90
38500;DHT22;24269;51.894;4.622;2022-08-07T09:13:02;21.00;99.90
38500;DHT22;24269;51.894;4.622;2022-08-07T09:21:33;21.00;99.90
38500;DHT22;24269;51.894;4.622;2022-08-07T09:29:59;21.30;99.90
38500;DHT22;24269;51.894;4.622;2022-08-07T09:32:49;21.40;99.90
38500;DHT22;24269;51.894;4.622;2022-08-07T09:38:35;21.50;99.90
38500;DHT22;24269;51.894;4.622;2022-08-07T09:44:14;21.80;99.90
38500;DHT22;24269;51.894;4.622;2022-08-07T09:50:00;22.00;99.90
38500;DHT22;24269;51.894;4.622;2022-08-07T09:52:41;22.20;99.90
38500;DHT22;24269;51.894;4.622;2022-08-07T10:04:03;22.80;99.90
38500;DHT22;24269;51.894;4.622;2022-08-07T10:09:56;23.10;99.90
38500;DHT22;24269;51.894;4.622;2022-08-07T10:12:48;23.20;99.90
38500;DHT22;24269;51.894;4.622;2022-08-07T10:15:17;23.10;99.90
38500;DHT22;24269;51.894;4.622;2022-08-07T10:25:51;23.10;99.90
38500;DHT22;24269;51.894;4.622;2022-08-07T10:34:14;22.90;99.90
38500;DHT22;24269;51.894;4.622;2022-08-07T10:44:59;23.40;99.90
38500;DHT22;24269;51.894;4.622;2022-08-07T10:58:56;23.90;99.20
38500;DHT22;24269;51.894;4.622;2022-08-07T11:09:45;24.50;98.00
38500;DHT22;24269;51.894;4.622;2022-08-07T11:12:17;24.60;98.00
38500;DHT22;24269;51.894;4.622;2022-08-07T11:14:53;24.70;97.30
38500;DHT22;24269;51.894;4.622;2022-08-07T11:17:32;24.80;98.40
38500;DHT22;24269;51.894;4.622;2022-08-07T11:20:22;25.10;99.10
38500;DHT22;24269;51.894;4.622;2022-08-07T11:23:20;25.10;98.40
38500;DHT22;24269;51.894;4.622;2022-08-07T11:26:16;25.40;99.00
38500;DHT22;24269;51.894;4.622;2022-08-07T11:29:04;25.50;95.50
38500;DHT22;24269;51.894;4.622;2022-08-07T11:31:50;25.40;96.60
38500;DHT22;24269;51.894;4.622;2022-08-07T11:35:05;25.20;96.60
38500;DHT22;24269;51.894;4.622;2022-08-07T11:37:30;25.20;97.40
38500;DHT22;24269;51.894;4.622;2022-08-07T11:43:36;24.90;96.90
38500;DHT22;24269;51.894;4.622;2022-08-07T11:54:37;25.80;97.40
38500;DHT22;24269;51.894;4.622;2022-08-07T12:00:18;25.90;95.00
38500;DHT22;24269;51.894;4.622;2022-08-07T12:08:50;26.10;94.90
38500;DHT22;24269;51.894;4.622;2022-08-07T12:11:41;25.90;95.90
38500;DHT22;24269;51.894;4.622;2022-08-07T12:14:19;26.10;97.10
38500;DHT22;24269;51.894;4.622;2022-08-07T12:16:49;26.30;96.40
38500;DHT22;24269;51.894;4.622;2022-08-07T12:19:36;26.50;95.50
38500;DHT22;24269;51.894;4.622;2022-08-07T12:22:14;26.30;95.50
38500;DHT22;24269;51.894;4.622;2022-08-07T12:24:58;26.40;94.20
38500;DHT22;24269;51.894;4.622;2022-08-07T12:27:47;26.60;95.30
38500;DHT22;24269;51.894;4.622;2022-08-07T12:30:13;26.60;93.70
38500;DHT22;24269;51.894;4.622;2022-08-07T12:35:24;26.20;95.50
38500;DHT22;24269;51.894;4.622;2022-08-07T12:37:51;26.30;96.90
38500;DHT22;24269;51.894;4.622;2022-08-07T12:40:21;26.50;97.50
38500;DHT22;24269;51.894;4.622;2022-08-07T12:42:51;26.70;97.40
38500;DHT22;24269;51.894;4.622;2022-08-07T12:45:22;26.80;97.50
38500;DHT22;24269;51.894;4.622;2022-08-07T12:50:49;27.10;97.00
38500;DHT22;24269;51.894;4.622;2022-08-07T12:53:18;27.30;97.10
38500;DHT22;24269;51.894;4.622;2022-08-07T12:56:08;27.60;96.60
38500;DHT22;24269;51.894;4.622;2022-08-07T12:58:37;27.80;96.70
38500;DHT22;24269;51.894;4.622;2022-08-07T13:09:20;27.70;93.20
38500;DHT22;24269;51.894;4.622;2022-08-07T13:11:56;27.40;94.30
38500;DHT22;24269;51.894;4.622;2022-08-07T13:14:30;27.50;94.40
38500;DHT22;24269;51.894;4.622;2022-08-07T13:17:11;27.40;94.60
38500;DHT22;24269;51.894;4.622;2022-08-07T13:19:49;27.50;93.90
38500;DHT22;24269;51.894;4.622;2022-08-07T13:22:28;27.50;94.20
38500;DHT22;24269;51.894;4.622;2022-08-07T13:25:11;27.40;92.40
38500;DHT22;24269;51.894;4.622;2022-08-07T13:27:49;27.20;93.60
38500;DHT22;24269;51.894;4.622;2022-08-07T13:30:17;27.20;94.90
38500;DHT22;24269;51.894;4.622;2022-08-07T13:32:54;27.50;94.40
38500;DHT22;24269;51.894;4.622;2022-08-07T13:35:41;27.60;93.90
38500;DHT22;24269;51.894;4.622;2022-08-07T13:38:33;27.50;93.50
38500;DHT22;24269;51.894;4.622;2022-08-07T13:41:01;27.30;93.70
38500;DHT22;24269;51.894;4.622;2022-08-07T13:43:29;27.60;94.70
38500;DHT22;24269;51.894;4.622;2022-08-07T13:45:59;27.70;93.10
38500;DHT22;24269;51.894;4.622;2022-08-07T13:48:27;27.90;93.30
38500;DHT22;24269;51.894;4.622;2022-08-07T13:50:55;27.90;93.50
38500;DHT22;24269;51.894;4.622;2022-08-07T13:53:27;28.00;92.80
38500;DHT22;24269;51.894;4.622;2022-08-07T13:55:55;28.10;93.20
38500;DHT22;24269;51.894;4.622;2022-08-07T13:58:24;27.70;92.10
38500;DHT22;24269;51.894;4.622;2022-08-07T14:01:15;27.80;94.00
38500;DHT22;24269;51.894;4.622;2022-08-07T14:03:43;27.70;92.50
38500;DHT22;24269;51.894;4.622;2022-08-07T14:06:10;27.70;94.40
38500;DHT22;24269;51.894;4.622;2022-08-07T14:08:42;28.00;92.00
38500;DHT22;24269;51.894;4.622;2022-08-07T14:11:12;28.30;94.00
38500;DHT22;24269;51.894;4.622;2022-08-07T14:13:40;28.50;93.40
38500;DHT22;24269;51.894;4.622;2022-08-07T14:16:11;28.80;93.30
38500;DHT22;24269;51.894;4.622;2022-08-07T14:18:43;28.90;91.90
38500;DHT22;24269;51.894;4.622;2022-08-07T14:21:19;28.90;92.00
38500;DHT22;24269;51.894;4.622;2022-08-07T14:23:59;28.60;90.60
38500;DHT22;24269;51.894;4.622;2022-08-07T14:26:34;27.80;91.30
38500;DHT22;24269;51.894;4.622;2022-08-07T14:29:04;27.50;92.80
38500;DHT22;24269;51.894;4.622;2022-08-07T14:31:30;27.30;93.60
38500;DHT22;24269;51.894;4.622;2022-08-07T14:33:56;27.20;93.40
38500;DHT22;24269;51.894;4.622;2022-08-07T14:36:22;27.00;92.80
38500;DHT22;24269;51.894;4.622;2022-08-07T14:38:50;27.30;93.20
38500;DHT22;24269;51.894;4.622;2022-08-07T14:41:28;27.90;93.70
38500;DHT22;24269;51.894;4.622;2022-08-07T14:43:57;28.20;94.00
38500;DHT22;24269;51.894;4.622;2022-08-07T14:46:26;27.70;92.10
38500;DHT22;24269;51.894;4.622;2022-08-07T14:48:54;27.00;92.70
38500;DHT22;24269;51.894;4.622;2022-08-07T14:51:23;26.70;93.20
38500;DHT22;24269;51.894;4.622;2022-08-07T14:53:58;26.60;93.10
38500;DHT22;24269;51.894;4.622;2022-08-07T14:56:29;26.50;93.50
38500;DHT22;24269;51.894;4.622;2022-08-07T14:59:05;26.50;93.90
38500;DHT22;24269;51.894;4.622;2022-08-07T15:01:35;26.40;93.00
38500;DHT22;24269;51.894;4.622;2022-08-07T15:04:04;26.50;93.20
38500;DHT22;24269;51.894;4.622;2022-08-07T15:06:32;27.00;93.80
38500;DHT22;24269;51.894;4.622;2022-08-07T15:09:12;27.50;92.00
38500;DHT22;24269;51.894;4.622;2022-08-07T15:11:42;27.80;91.20
38500;DHT22;24269;51.894;4.622;2022-08-07T15:14:19;27.20;91.00
38500;DHT22;24269;51.894;4.622;2022-08-07T15:16:48;27.00;91.50
38500;DHT22;24269;51.894;4.622;2022-08-07T15:19:28;27.00;91.80
38500;DHT22;24269;51.894;4.622;2022-08-07T15:21:55;26.80;91.00
38500;DHT22;24269;51.894;4.622;2022-08-07T15:24:35;27.30;90.30
38500;DHT22;24269;51.894;4.622;2022-08-07T15:27:15;27.90;89.10
38500;DHT22;24269;51.894;4.622;2022-08-07T15:29:44;28.00;88.70
38500;DHT22;24269;51.894;4.622;2022-08-07T15:32:10;26.80;90.20
38500;DHT22;24269;51.894;4.622;2022-08-07T15:34:48;26.00;91.30
38500;DHT22;24269;51.894;4.622;2022-08-07T15:37:22;25.40;91.50
38500;DHT22;24269;51.894;4.622;2022-08-07T15:39:53;25.40;91.30
38500;DHT22;24269;51.894;4.622;2022-08-07T15:45:09;26.50;91.10
38500;DHT22;24269;51.894;4.622;2022-08-07T15:47:38;27.50;90.60
38500;DHT22;24269;51.894;4.622;2022-08-07T15:50:10;28.20;89.20
38500;DHT22;24269;51.894;4.622;2022-08-07T15:52:37;28.40;85.90
38500;DHT22;24269;51.894;4.622;2022-08-07T15:55:06;28.40;86.70
38500;DHT22;24269;51.894;4.622;2022-08-07T15:57:34;28.80;86.40
38500;DHT22;24269;51.894;4.622;2022-08-07T16:00:02;29.40;88.90
38500;DHT22;24269;51.894;4.622;2022-08-07T16:02:37;29.90;85.30
38500;DHT22;24269;51.894;4.622;2022-08-07T16:05:11;30.00;86.30
38500;DHT22;24269;51.894;4.622;2022-08-07T16:07:57;29.60;82.70
38500;DHT22;24269;51.894;4.622;2022-08-07T16:10:27;29.00;85.20
38500;DHT22;24269;51.894;4.622;2022-08-07T16:15:48;27.80;87.80
38500;DHT22;24269;51.894;4.622;2022-08-07T16:26:55;24.80;91.80
38500;DHT22;24269;51.894;4.622;2022-08-07T16:32:27;23.70;93.60
38500;DHT22;24269;51.894;4.622;2022-08-07T16:59:44;22.00;97.50
38500;DHT22;24269;51.894;4.622;2022-08-07T17:05:11;21.80;97.40
38500;DHT22;24269;51.894;4.622;2022-08-07T17:07:51;21.80;97.90
38500;DHT22;24269;51.894;4.622;2022-08-07T17:18:43;21.30;99.90
38500;DHT22;24269;51.894;4.622;2022-08-07T17:21:14;21.30;99.90
38500;DHT22;24269;51.894;4.622;2022-08-07T17:32:26;21.00;99.90
38500;DHT22;24269;51.894;4.622;2022-08-07T17:34:54;20.90;99.90
38500;DHT22;24269;51.894;4.622;2022-08-07T17:37:26;20.90;99.90
38500;DHT22;24269;51.894;4.622;2022-08-07T17:45:06;20.70;99.90
38500;DHT22;24269;51.894;4.622;2022-08-07T17:47:43;20.70;99.90
38500;DHT22;24269;51.894;4.622;2022-08-07T17:53:26;20.70;99.90
38500;DHT22;24269;51.894;4.622;2022-08-07T17:56:00;20.60;99.90
38500;DHT22;24269;51.894;4.622;2022-08-07T17:58:32;20.50;99.90
38500;DHT22;24269;51.894;4.622;2022-08-07T18:01:08;20.30;99.90
38500;DHT22;24269;51.894;4.622;2022-08-07T18:03:46;20.20;99.90
38500;DHT22;24269;51.894;4.622;2022-08-07T18:06:14;20.20;99.90
38500;DHT22;24269;51.894;4.622;2022-08-07T18:11:22;20.10;99.90
38500;DHT22;24269;51.894;4.622;2022-08-07T18:13:55;20.10;99.90
38500;DHT22;24269;51.894;4.622;2022-08-07T18:18:50;19.90;99.90
38500;DHT22;24269;51.894;4.622;2022-08-07T18:21:32;19.90;99.90
38500;DHT22;24269;51.894;4.622;2022-08-07T18:29:41;19.70;99.90
38500;DHT22;24269;51.894;4.622;2022-08-07T18:35:19;19.70;99.90
38500;DHT22;24269;51.894;4.622;2022-08-07T18:40:28;19.60;99.90
38500;DHT22;24269;51.894;4.622;2022-08-07T18:43:10;19.60;99.90
38500;DHT22;24269;51.894;4.622;2022-08-07T18:45:59;19.50;99.90
38500;DHT22;24269;51.894;4.622;2022-08-07T18:48:44;19.50;99.90
38500;DHT22;24269;51.894;4.622;2022-08-07T18:51:49;19.40;99.90
38500;DHT22;24269;51.894;4.622;2022-08-07T19:02:13;19.20;99.90
38500;DHT22;24269;51.894;4.622;2022-08-07T19:05:19;19.10;99.90
38500;DHT22;24269;51.894;4.622;2022-08-07T19:10:09;19.00;99.90
38500;DHT22;24269;51.894;4.622;2022-08-07T19:12:46;19.00;99.90
38500;DHT22;24269;51.894;4.622;2022-08-07T19:15:23;18.90;99.90
38500;DHT22;24269;51.894;4.622;2022-08-07T19:18:21;18.80;99.90
38500;DHT22;24269;51.894;4.622;2022-08-07T19:23:47;18.70;99.90
38500;DHT22;24269;51.894;4.622;2022-08-07T19:26:14;18.60;99.90
38500;DHT22;24269;51.894;4.622;2022-08-07T19:28:48;18.60;99.90
38500;DHT22;24269;51.894;4.622;2022-08-07T19:31:37;18.50;99.90
38500;DHT22;24269;51.894;4.622;2022-08-07T19:34:04;18.50;99.90
38500;DHT22;24269;51.894;4.622;2022-08-07T19:36:38;18.50;99.90
38500;DHT22;24269;51.894;4.622;2022-08-07T19:39:06;18.40;99.90
38500;DHT22;24269;51.894;4.622;2022-08-07T19:41:43;18.40;99.90
38500;DHT22;24269;51.894;4.622;2022-08-07T19:44:10;18.30;99.90
38500;DHT22;24269;51.894;4.622;2022-08-07T19:46:41;18.30;99.90
38500;DHT22;24269;51.894;4.622;2022-08-07T19:49:15;18.30;99.90
38500;DHT22;24269;51.894;4.622;2022-08-07T19:51:41;18.20;99.90